Time;durP1;ratioP1;P1;durP2;ratioP2;P2;SDS_P1;SDS_P2;PMS_P1;PMS_P2;Temp;Humidity;BMP_temperature;BMP_pressure;BME280_temperature;BME280_humidity;BME280_pressure;Samples;Min_cycle;Max_cycle;Signal;HPM_P1;HPM_P2
2022/12/31 00:01:49;;;;;;;13.80;5.50;;;1.70;99.90;;;;;;5014563;28;20181;-84
2022/12/31 00:04:14;;;;;;;12.50;5.77;;;1.80;99.90;;;;;;5013110;28;20348;-84
2022/12/31 00:06:40;;;;;;;9.73;6.33;;;1.80;99.90;;;;;;4995887;28;20191;-84
2022/12/31 00:09:09;;;;;;;5.10;4.47;;;1.80;99.90;;;;;;4996035;28;20185;-85
2022/12/31 00:11:35;;;;;;;8.37;4.53;;;1.80;99.90;;;;;;5013178;28;20177;-86
2022/12/31 00:14:01;;;;;;;6.63;4.33;;;1.90;99.90;;;;;;5013696;28;20268;-85
2022/12/31 00:16:30;;;;;;;7.60;3.33;;;2.00;99.90;;;;;;4995891;28;20283;-85
2022/12/31 00:18:58;;;;;;;4.13;3.73;;;2.20;99.90;;;;;;4996256;28;20187;-85
2022/12/31 00:21:25;;;;;;;2.60;2.40;;;2.50;99.90;;;;;;5013373;28;20220;-85
2022/12/31 00:23:51;;;;;;;3.57;3.27;;;2.70;99.90;;;;;;5013654;28;20771;-84
2022/12/31 00:26:20;;;;;;;1.97;1.83;;;2.90;99.90;;;;;;5013348;28;20173;-85
2022/12/31 00:28:46;;;;;;;4.53;3.07;;;3.20;99.90;;;;;;5011353;28;20185;-85
2022/12/31 00:31:21;;;;;;;4.57;3.00;;;3.30;99.90;;;;;;5013734;28;20193;-85
2022/12/31 00:33:47;;;;;;;3.60;2.93;;;3.40;99.90;;;;;;5013828;28;20187;-85
2022/12/31 00:36:17;;;;;;;5.63;3.30;;;3.40;99.90;;;;;;5013385;28;20188;-85
2022/12/31 00:38:44;;;;;;;4.00;1.93;;;3.40;99.90;;;;;;5017118;28;20185;-85
2022/12/31 00:41:11;;;;;;;4.43;3.07;;;3.50;99.90;;;;;;5015891;28;20216;-85
2022/12/31 00:43:37;;;;;;;5.50;2.90;;;3.60;99.90;;;;;;5017084;28;20181;-85
2022/12/31 00:46:04;;;;;;;3.63;2.53;;;3.60;99.90;;;;;;4999627;28;20180;-85
2022/12/31 00:48:31;;;;;;;4.23;3.40;;;3.70;99.90;;;;;;5016811;28;20195;-86
2022/12/31 00:50:57;;;;;;;7.73;3.13;;;3.80;99.90;;;;;;5016781;28;20184;-84
2022/12/31 00:53:24;;;;;;;2.30;2.13;;;3.70;99.90;;;;;;5016286;28;20172;-86
2022/12/31 00:55:50;;;;;;;2.90;2.70;;;3.80;99.90;;;;;;5016882;28;20193;-85
2022/12/31 00:58:15;;;;;;;1.77;1.33;;;3.90;99.90;;;;;;4994931;28;20193;-85
2022/12/31 01:00:41;;;;;;;5.90;3.00;;;3.90;99.90;;;;;;4994447;28;20224;-85
2022/12/31 01:03:07;;;;;;;5.00;1.83;;;3.90;99.90;;;;;;4979693;28;20229;-85
2022/12/31 01:05:34;;;;;;;7.57;3.03;;;3.90;99.90;;;;;;4997264;28;20232;-85
2022/12/31 01:08:01;;;;;;;6.93;2.53;;;3.90;99.90;;;;;;4989814;28;20198;-86
2022/12/31 01:13:12;;;;;;;4.47;2.67;;;3.90;99.90;;;;;;5002174;28;20526;-86
2022/12/31 01:15:38;;;;;;;3.13;1.57;;;3.90;99.90;;;;;;5016487;28;20177;-86
2022/12/31 01:18:06;;;;;;;7.33;3.00;;;3.90;99.90;;;;;;4999550;28;20201;-86
2022/12/31 01:20:37;;;;;;;2.77;2.13;;;3.90;99.90;;;;;;5016155;28;20287;-86
2022/12/31 01:23:04;;;;;;;4.47;2.30;;;4.00;99.90;;;;;;5016513;28;20173;-85
2022/12/31 01:25:33;;;;;;;11.63;2.87;;;4.00;99.90;;;;;;5016523;28;20181;-85
2022/12/31 01:27:59;;;;;;;5.27;2.27;;;4.00;99.90;;;;;;5016322;28;20537;-84
2022/12/31 01:30:24;;;;;;;2.50;1.90;;;4.10;99.90;;;;;;4982369;28;20185;-86
2022/12/31 01:32:50;;;;;;;5.37;2.47;;;4.00;99.90;;;;;;4998948;28;20192;-85
2022/12/31 01:35:17;;;;;;;1.60;1.50;;;4.00;99.90;;;;;;5015413;28;20666;-85
2022/12/31 01:37:43;;;;;;;1.47;1.37;;;4.00;99.90;;;;;;4982003;28;20227;-85
2022/12/31 01:40:09;;;;;;;3.40;1.87;;;4.10;99.90;;;;;;4982217;28;20259;-84
2022/12/31 01:42:35;;;;;;;2.73;2.53;;;4.10;99.90;;;;;;5015113;28;20188;-86
2022/12/31 01:45:01;;;;;;;1.93;1.83;;;4.10;99.90;;;;;;4998840;28;20189;-85
2022/12/31 01:47:37;;;;;;;2.13;1.67;;;4.20;99.90;;;;;;5015815;28;20181;-85
2022/12/31 01:50:19;;;;;;;2.73;2.53;;;4.20;99.90;;;;;;5016061;28;20173;-85
2022/12/31 01:52:48;;;;;;;1.53;1.43;;;4.30;99.90;;;;;;5015514;28;20181;-86
2022/12/31 01:55:22;;;;;;;1.67;1.57;;;4.30;99.90;;;;;;5016069;28;20595;-86
2022/12/31 01:57:52;;;;;;;3.93;2.40;;;4.40;99.90;;;;;;5015680;28;20238;-86
2022/12/31 02:00:18;;;;;;;2.43;2.10;;;4.40;99.90;;;;;;5015725;28;20201;-86
2022/12/31 02:02:45;;;;;;;4.63;1.80;;;4.30;99.90;;;;;;5015392;28;20268;-84
2022/12/31 02:05:34;;;;;;;2.77;2.57;;;4.30;99.90;;;;;;4998242;28;20237;-84
2022/12/31 02:08:02;;;;;;;2.50;2.10;;;4.30;99.90;;;;;;4998828;28;20181;-84
2022/12/31 02:10:28;;;;;;;3.43;2.83;;;4.30;99.90;;;;;;5015599;28;20181;-84
2022/12/31 02:12:53;;;;;;;7.67;2.30;;;4.30;99.90;;;;;;5015301;28;20545;-83
2022/12/31 02:15:25;;;;;;;2.03;1.70;;;4.30;99.90;;;;;;4981986;28;20196;-84
2022/12/31 02:18:03;;;;;;;5.83;1.50;;;4.30;99.90;;;;;;5015332;28;20227;-83
2022/12/31 02:21:03;;;;;;;4.00;1.10;;;4.40;99.90;;;;;;5015192;28;20205;-84
2022/12/31 02:23:53;;;;;;;3.50;2.27;;;4.40;99.90;;;;;;5015645;28;20246;-84
2022/12/31 02:26:41;;;;;;;3.10;2.37;;;4.40;99.90;;;;;;5015869;28;20179;-84
2022/12/31 02:29:38;;;;;;;6.33;2.93;;;4.40;99.90;;;;;;5015441;28;20185;-85
2022/12/31 02:32:20;;;;;;;9.50;2.63;;;4.50;99.90;;;;;;5015245;28;20167;-85
2022/12/31 02:34:55;;;;;;;2.40;2.13;;;4.50;99.90;;;;;;4997527;28;20187;-85
2022/12/31 02:37:22;;;;;;;5.97;2.90;;;4.50;99.90;;;;;;5015156;28;20157;-85
2022/12/31 02:39:48;;;;;;;2.00;1.90;;;4.50;99.90;;;;;;4997343;28;20215;-85
2022/12/31 02:42:14;;;;;;;4.23;2.17;;;4.50;99.90;;;;;;4997560;28;20540;-85
2022/12/31 02:44:41;;;;;;;2.10;1.97;;;4.50;99.90;;;;;;4997477;28;20188;-86
2022/12/31 02:47:21;;;;;;;1.83;1.70;;;4.50;99.90;;;;;;5014791;28;20264;-85
2022/12/31 02:49:50;;;;;;;3.10;2.47;;;4.50;99.90;;;;;;4997212;28;20681;-85
2022/12/31 02:52:54;;;;;;;2.40;2.20;;;4.50;99.90;;;;;;5014405;28;20548;-85
2022/12/31 02:55:50;;;;;;;5.70;2.63;;;4.60;99.90;;;;;;5006533;28;20200;-85
2022/12/31 03:04:34;;;;;;;4.13;1.60;;;4.70;99.90;;;;;;4981166;28;20232;-85
2022/12/31 03:07:13;;;;;;;8.20;3.47;;;4.70;99.90;;;;;;4996726;28;20192;-85
2022/12/31 03:09:40;;;;;;;2.03;1.93;;;4.70;99.90;;;;;;5014115;28;20640;-85
2022/12/31 03:14:52;;;;;;;3.47;2.07;;;4.80;99.90;;;;;;5014365;28;20180;-85
2022/12/31 03:17:18;;;;;;;4.03;2.70;;;4.80;99.90;;;;;;4997211;28;20626;-85
2022/12/31 03:22:29;;;;;;;7.40;3.27;;;4.70;99.90;;;;;;4999759;28;20223;-85
2022/12/31 03:27:49;;;;;;;2.47;2.27;;;4.80;99.90;;;;;;5013988;28;20257;-85
2022/12/31 03:30:17;;;;;;;2.13;1.90;;;4.80;99.90;;;;;;4964663;28;20280;-86
2022/12/31 03:32:44;;;;;;;4.60;1.97;;;4.80;99.90;;;;;;4996647;28;20177;-86
2022/12/31 03:35:12;;;;;;;3.77;2.07;;;4.80;99.90;;;;;;4996565;28;20185;-85
2022/12/31 03:37:39;;;;;;;3.03;2.70;;;4.80;99.90;;;;;;5014184;28;20169;-85
2022/12/31 03:40:07;;;;;;;1.90;1.80;;;4.90;99.90;;;;;;5013313;28;20205;-85
2022/12/31 03:42:33;;;;;;;4.13;2.33;;;5.00;99.90;;;;;;4980229;28;20183;-85
2022/12/31 03:44:59;;;;;;;2.43;1.77;;;5.00;99.90;;;;;;5014265;28;20185;-85
2022/12/31 03:47:25;;;;;;;2.20;2.00;;;5.00;99.90;;;;;;4996601;28;20181;-85
2022/12/31 03:49:51;;;;;;;4.60;1.87;;;5.00;99.90;;;;;;4980900;28;20287;-85
2022/12/31 03:52:16;;;;;;;6.07;3.03;;;5.10;99.90;;;;;;5020287;28;20223;-85
2022/12/31 03:54:42;;;;;;;5.07;1.90;;;5.10;99.90;;;;;;5034977;28;20243;-84
2022/12/31 03:57:08;;;;;;;6.10;2.40;;;5.10;99.90;;;;;;5004698;28;20185;-85
2022/12/31 03:59:34;;;;;;;7.37;2.60;;;5.10;99.90;;;;;;5038356;28;20189;-85
2022/12/31 04:02:00;;;;;;;1.97;1.87;;;5.20;99.90;;;;;;4999227;28;20182;-86
2022/12/31 04:04:25;;;;;;;2.30;1.80;;;5.20;99.90;;;;;;4992363;28;20233;-85
2022/12/31 04:06:51;;;;;;;3.33;1.67;;;5.20;99.90;;;;;;4993395;28;20186;-85
2022/12/31 04:09:17;;;;;;;2.00;1.77;;;5.20;99.90;;;;;;4999419;28;20189;-85
2022/12/31 04:11:42;;;;;;;3.37;2.43;;;5.20;99.90;;;;;;5000801;28;20196;-85
2022/12/31 04:14:08;;;;;;;2.43;2.23;;;5.20;99.90;;;;;;5016983;28;20185;-85
2022/12/31 04:16:33;;;;;;;4.03;2.20;;;5.20;99.90;;;;;;5003607;28;20216;-86
2022/12/31 04:18:59;;;;;;;4.87;2.57;;;5.20;99.90;;;;;;4976467;28;20194;-86
2022/12/31 04:21:25;;;;;;;2.33;2.07;;;5.20;99.90;;;;;;4977222;28;20678;-85
2022/12/31 04:23:50;;;;;;;1.57;1.37;;;5.10;99.90;;;;;;4993593;28;20241;-85
2022/12/31 04:26:16;;;;;;;4.20;2.40;;;5.20;99.90;;;;;;4978719;28;20194;-85
2022/12/31 04:28:42;;;;;;;4.47;2.20;;;5.10;99.90;;;;;;4977557;28;20643;-85
2022/12/31 04:31:07;;;;;;;4.30;1.93;;;5.20;99.90;;;;;;4990344;28;20569;-86
2022/12/31 04:33:33;;;;;;;4.67;2.77;;;5.20;99.90;;;;;;4970101;28;20703;-85
2022/12/31 04:36:03;;;;;;;1.47;1.40;;;5.20;99.90;;;;;;4973256;28;20183;-85
2022/12/31 04:38:29;;;;;;;2.20;2.00;;;5.20;99.90;;;;;;4974450;28;20183;-84
2022/12/31 04:43:40;;;;;;;3.67;3.33;;;5.20;99.90;;;;;;4974480;28;20181;-85
2022/12/31 04:46:06;;;;;;;3.47;3.13;;;5.20;99.90;;;;;;4973304;28;20191;-86
2022/12/31 04:48:32;;;;;;;3.70;1.63;;;5.30;99.90;;;;;;4957284;28;20700;-85
2022/12/31 04:50:58;;;;;;;5.07;2.73;;;5.30;99.90;;;;;;4956990;28;20194;-85
2022/12/31 04:53:24;;;;;;;1.97;1.87;;;5.30;99.90;;;;;;4974323;28;20675;-85
2022/12/31 04:55:50;;;;;;;2.30;2.10;;;5.30;99.90;;;;;;4973070;28;20222;-84
2022/12/31 04:58:16;;;;;;;1.50;1.43;;;5.30;99.90;;;;;;4972993;28;20183;-84
2022/12/31 05:00:43;;;;;;;2.40;2.13;;;5.40;99.90;;;;;;4972913;28;20265;-85
2022/12/31 05:03:09;;;;;;;5.17;2.00;;;5.30;99.90;;;;;;4976088;28;20632;-84
2022/12/31 05:05:38;;;;;;;2.13;1.73;;;5.40;99.90;;;;;;4988159;28;20292;-84
2022/12/31 05:08:03;;;;;;;2.20;2.03;;;5.40;99.90;;;;;;4972913;28;20183;-84
2022/12/31 05:10:29;;;;;;;4.10;2.63;;;5.50;99.90;;;;;;4979211;28;20190;-85
2022/12/31 05:12:55;;;;;;;3.27;2.03;;;5.40;99.90;;;;;;4987344;28;20550;-86
2022/12/31 05:15:20;;;;;;;1.20;1.13;;;5.50;99.90;;;;;;4962016;28;20237;-85
2022/12/31 05:17:46;;;;;;;4.40;1.93;;;5.50;99.90;;;;;;4985896;28;20278;-85
2022/12/31 05:20:12;;;;;;;4.77;2.83;;;5.50;99.90;;;;;;4977301;28;20667;-85
2022/12/31 05:22:37;;;;;;;5.43;3.23;;;5.60;99.90;;;;;;4977718;28;20257;-85
2022/12/31 05:25:03;;;;;;;3.37;2.40;;;5.60;99.90;;;;;;4959658;28;20699;-85
2022/12/31 05:27:32;;;;;;;4.40;2.97;;;5.60;99.90;;;;;;4981692;28;20218;-85
2022/12/31 05:29:58;;;;;;;3.20;2.20;;;5.60;99.90;;;;;;4988721;28;20191;-86
2022/12/31 05:32:24;;;;;;;2.63;1.90;;;5.60;99.90;;;;;;4988766;28;20272;-85
2022/12/31 05:34:50;;;;;;;2.57;2.37;;;5.60;99.90;;;;;;4983667;28;20544;-85
2022/12/31 05:37:15;;;;;;;4.57;1.73;;;5.70;99.90;;;;;;4985011;28;20683;-84
2022/12/31 05:39:41;;;;;;;6.10;3.00;;;5.70;99.90;;;;;;4986830;28;20714;-84
2022/12/31 05:42:06;;;;;;;3.57;2.37;;;5.80;99.90;;;;;;4987161;28;20210;-86
2022/12/31 05:44:32;;;;;;;6.57;2.17;;;5.70;99.90;;;;;;4986628;28;20194;-86
2022/12/31 05:46:58;;;;;;;2.60;1.87;;;5.70;99.90;;;;;;4967848;28;20636;-86
2022/12/31 05:49:23;;;;;;;3.33;2.57;;;5.80;99.90;;;;;;4970910;28;20190;-86
2022/12/31 05:51:49;;;;;;;1.83;1.70;;;5.70;99.90;;;;;;4984369;28;20190;-86
2022/12/31 05:54:15;;;;;;;3.50;1.73;;;5.80;99.90;;;;;;4984710;28;20211;-86
2022/12/31 05:56:40;;;;;;;4.10;2.73;;;5.80;99.90;;;;;;4967423;28;20206;-87
2022/12/31 05:59:06;;;;;;;2.23;2.13;;;5.80;99.90;;;;;;4986780;28;20195;-86
2022/12/31 06:01:31;;;;;;;3.87;2.53;;;5.70;99.90;;;;;;4968939;28;20222;-86
2022/12/31 06:03:57;;;;;;;2.20;2.00;;;5.70;99.90;;;;;;4981459;28;20230;-86
2022/12/31 06:06:23;;;;;;;2.20;1.87;;;5.70;99.90;;;;;;4981120;28;20243;-86
2022/12/31 06:08:52;;;;;;;1.37;1.27;;;5.70;99.90;;;;;;4986946;28;20183;-85
2022/12/31 06:11:17;;;;;;;2.13;1.83;;;5.70;99.90;;;;;;4984470;28;20189;-85
2022/12/31 06:13:43;;;;;;;2.20;2.00;;;5.70;99.90;;;;;;4968527;28;20179;-85
2022/12/31 06:16:10;;;;;;;4.50;2.20;;;5.70;99.90;;;;;;4984366;28;20315;-85
2022/12/31 06:18:36;;;;;;;2.33;2.13;;;5.80;99.90;;;;;;4980735;28;20232;-86
2022/12/31 06:21:01;;;;;;;3.40;2.80;;;5.70;99.90;;;;;;4986344;28;20591;-85
2022/12/31 06:23:27;;;;;;;5.77;3.60;;;5.80;99.90;;;;;;4986717;28;20194;-85
2022/12/31 06:25:53;;;;;;;3.23;2.67;;;5.80;99.90;;;;;;4984163;28;20186;-86
2022/12/31 06:28:18;;;;;;;2.77;2.27;;;5.80;99.90;;;;;;4984949;28;20527;-86
2022/12/31 06:30:44;;;;;;;3.63;2.93;;;5.80;99.90;;;;;;4978499;28;21915;-85
2022/12/31 06:33:09;;;;;;;3.37;2.03;;;5.80;99.90;;;;;;4964309;28;20846;-86
2022/12/31 06:35:35;;;;;;;4.17;2.63;;;5.80;99.90;;;;;;4955163;28;20190;-87
2022/12/31 06:38:01;;;;;;;5.33;3.57;;;5.90;99.90;;;;;;4951928;28;20186;-86
2022/12/31 06:40:27;;;;;;;3.63;1.93;;;5.90;99.90;;;;;;4947093;28;20222;-86
2022/12/31 06:42:53;;;;;;;5.50;2.80;;;5.90;99.90;;;;;;4975520;28;20189;-86
2022/12/31 06:45:19;;;;;;;4.77;2.90;;;5.90;99.90;;;;;;4981828;28;20277;-86
2022/12/31 06:47:45;;;;;;;2.40;1.53;;;5.90;99.90;;;;;;4957867;28;20189;-85
2022/12/31 06:50:10;;;;;;;7.93;3.60;;;6.00;99.90;;;;;;4977684;28;20550;-86
2022/12/31 06:52:36;;;;;;;11.47;5.33;;;6.00;99.90;;;;;;4984520;28;20194;-85
2022/12/31 06:55:03;;;;;;;2.83;2.43;;;6.00;99.90;;;;;;4979485;28;20193;-87
2022/12/31 06:57:29;;;;;;;2.67;2.27;;;6.00;99.90;;;;;;4967528;28;20517;-86
2022/12/31 06:59:55;;;;;;;3.67;2.03;;;6.10;99.90;;;;;;4989973;28;20701;-87
2022/12/31 07:03:02;;;;;;;5.40;3.43;;;6.10;99.90;;;;;;4980659;28;20659;-86
2022/12/31 07:06:00;;;;;;;2.73;2.03;;;6.10;99.90;;;;;;4935580;28;20230;-86
2022/12/31 07:08:38;;;;;;;11.33;3.27;;;6.10;99.90;;;;;;4940957;28;20199;-85
2022/12/31 07:11:17;;;;;;;3.30;1.97;;;6.20;99.90;;;;;;4964304;28;20190;-86
2022/12/31 07:14:08;;;;;;;4.47;2.77;;;6.20;99.90;;;;;;4964357;28;20198;-86
2022/12/31 07:16:38;;;;;;;3.93;2.33;;;6.20;99.90;;;;;;4969148;28;20182;-86
2022/12/31 07:19:32;;;;;;;2.27;1.80;;;6.30;99.90;;;;;;4969271;28;20191;-85
2022/12/31 07:21:58;;;;;;;3.90;2.53;;;6.30;99.90;;;;;;4963341;28;20183;-86
2022/12/31 07:24:24;;;;;;;2.13;1.53;;;6.40;99.90;;;;;;4970398;28;20187;-85
2022/12/31 07:27:02;;;;;;;7.50;3.10;;;6.40;99.90;;;;;;4963574;28;20187;-85
2022/12/31 07:29:43;;;;;;;1.97;1.80;;;6.50;99.90;;;;;;4965938;28;20189;-86
2022/12/31 07:32:33;;;;;;;4.63;2.37;;;6.50;99.90;;;;;;4972818;28;20184;-84
2022/12/31 07:35:07;;;;;;;3.50;1.57;;;6.50;99.90;;;;;;4973255;28;20195;-86
2022/12/31 07:37:39;;;;;;;3.07;2.60;;;6.60;99.90;;;;;;4972756;28;20288;-86
2022/12/31 07:40:20;;;;;;;4.00;1.80;;;6.60;99.90;;;;;;4973168;28;20683;-86
2022/12/31 07:43:11;;;;;;;1.53;1.43;;;6.60;99.90;;;;;;4963087;28;20213;-87
2022/12/31 07:45:57;;;;;;;3.83;2.20;;;6.70;99.90;;;;;;4965558;28;20190;-89
2022/12/31 07:48:27;;;;;;;2.27;1.80;;;6.80;99.90;;;;;;4960248;28;20270;-86
2022/12/31 07:50:55;;;;;;;2.13;1.93;;;6.90;99.90;;;;;;4961392;28;20274;-85
2022/12/31 07:53:22;;;;;;;2.97;2.35;;;6.90;99.90;;;;;;4973431;28;20477;-86
2022/12/31 07:56:01;;;;;;;4.03;2.20;;;6.90;99.90;;;;;;4970181;28;20671;-85
2022/12/31 07:58:39;;;;;;;3.80;2.23;;;6.90;99.90;;;;;;4953339;29;20195;-85
2022/12/31 08:01:10;;;;;;;10.03;2.70;;;7.00;99.90;;;;;;4968386;28;20213;-85
2022/12/31 08:04:13;;;;;;;3.07;2.17;;;7.00;99.90;;;;;;4958721;28;20254;-86
2022/12/31 08:06:57;;;;;;;3.17;2.17;;;7.00;99.90;;;;;;4987828;28;20200;-85
2022/12/31 08:10:02;;;;;;;4.63;2.97;;;7.10;99.90;;;;;;4995470;28;20670;-85
2022/12/31 08:12:33;;;;;;;2.53;2.00;;;7.10;99.90;;;;;;4953780;28;20188;-85
2022/12/31 08:14:58;;;;;;;3.67;2.20;;;7.10;99.90;;;;;;5000590;28;20178;-85
2022/12/31 08:17:24;;;;;;;2.47;2.13;;;7.20;99.90;;;;;;4971260;28;20694;-85
2022/12/31 08:19:50;;;;;;;1.80;1.67;;;7.20;99.90;;;;;;4970144;28;20206;-86
2022/12/31 08:22:19;;;;;;;5.93;2.63;;;7.10;99.90;;;;;;4972579;28;20236;-85
2022/12/31 08:25:02;;;;;;;3.27;2.33;;;7.10;99.90;;;;;;5000984;28;20182;-86
2022/12/31 08:27:35;;;;;;;2.13;1.80;;;7.10;99.90;;;;;;4994451;28;20646;-86
2022/12/31 08:30:05;;;;;;;5.27;2.33;;;7.20;99.90;;;;;;4981529;28;20177;-86
2022/12/31 08:32:49;;;;;;;2.83;1.33;;;7.30;99.90;;;;;;4997077;28;20790;-85
2022/12/31 08:35:37;;;;;;;2.73;2.20;;;7.50;99.90;;;;;;4983883;28;20232;-86
2022/12/31 08:38:09;;;;;;;2.50;1.50;;;7.70;99.90;;;;;;4983147;28;20197;-86
2022/12/31 08:41:17;;;;;;;2.27;2.07;;;7.70;99.90;;;;;;4984175;28;20213;-86
2022/12/31 08:44:03;;;;;;;2.00;1.40;;;7.70;99.90;;;;;;4989022;28;20736;-86
2022/12/31 08:46:44;;;;;;;1.67;1.50;;;7.70;99.90;;;;;;4998692;28;20181;-86
2022/12/31 08:49:10;;;;;;;2.10;1.33;;;7.80;99.90;;;;;;5000569;28;20662;-85
2022/12/31 08:51:36;;;;;;;1.40;1.30;;;7.70;99.90;;;;;;4987283;28;20182;-85
2022/12/31 08:54:02;;;;;;;1.53;1.40;;;7.80;99.90;;;;;;5004758;28;20165;-85
2022/12/31 08:56:39;;;;;;;4.80;1.97;;;7.90;99.90;;;;;;4979925;28;20174;-84
2022/12/31 08:59:17;;;;;;;2.83;1.90;;;7.90;99.90;;;;;;4999010;28;20211;-84
2022/12/31 09:02:16;;;;;;;3.10;2.57;;;7.90;99.90;;;;;;4995396;28;20229;-86
2022/12/31 09:05:22;;;;;;;2.27;1.90;;;7.90;99.90;;;;;;4984455;28;20326;-86
2022/12/31 09:08:19;;;;;;;2.67;1.40;;;7.90;99.90;;;;;;4990119;28;20178;-85
2022/12/31 09:11:30;;;;;;;1.40;1.30;;;7.90;99.90;;;;;;4986220;28;20189;-85
2022/12/31 09:14:33;;;;;;;2.23;1.20;;;7.90;99.90;;;;;;4977381;28;20210;-85
2022/12/31 09:17:37;;;;;;;4.20;1.43;;;7.90;99.90;;;;;;5003946;28;20182;-84
2022/12/31 09:20:04;;;;;;;3.00;2.13;;;7.90;99.90;;;;;;4982653;28;20220;-85
2022/12/31 09:22:30;;;;;;;5.17;2.23;;;8.00;99.90;;;;;;4986172;28;20178;-86
2022/12/31 09:24:56;;;;;;;2.10;1.63;;;7.90;99.90;;;;;;5004752;28;20546;-85
2022/12/31 09:27:42;;;;;;;1.93;1.73;;;8.00;99.90;;;;;;5002766;28;20193;-86
2022/12/31 09:30:12;;;;;;;2.07;1.87;;;8.00;99.90;;;;;;5000901;28;20189;-87
2022/12/31 09:33:17;;;;;;;3.17;1.87;;;8.10;99.90;;;;;;5004521;28;20647;-84
2022/12/31 09:35:50;;;;;;;4.70;2.67;;;8.10;99.90;;;;;;5000472;28;20201;-87
2022/12/31 09:38:38;;;;;;;3.63;1.87;;;8.20;99.90;;;;;;5001475;28;20324;-88
2022/12/31 09:41:34;;;;;;;3.23;1.93;;;8.20;99.90;;;;;;4983173;28;20206;-86
2022/12/31 09:44:03;;;;;;;10.93;2.03;;;8.20;99.90;;;;;;4985492;28;20189;-87
2022/12/31 09:46:50;;;;;;;2.63;2.00;;;8.20;99.90;;;;;;4990106;28;20182;-88
2022/12/31 09:49:55;;;;;;;4.83;2.30;;;8.30;99.90;;;;;;4984588;28;20185;-88
2022/12/31 09:52:44;;;;;;;6.20;2.47;;;8.30;99.90;;;;;;4999536;28;20240;-86
2022/12/31 09:55:30;;;;;;;1.67;1.57;;;8.40;99.90;;;;;;4999408;28;20185;-87
2022/12/31 09:58:23;;;;;;;2.37;1.80;;;8.50;99.90;;;;;;5003008;28;20642;-86
2022/12/31 10:00:58;;;;;;;1.80;1.53;;;8.50;99.90;;;;;;4984321;28;20316;-86
2022/12/31 10:03:52;;;;;;;2.83;1.60;;;8.50;99.90;;;;;;4997129;28;20185;-90
2022/12/31 10:06:49;;;;;;;1.70;1.50;;;8.60;99.90;;;;;;4972027;28;20198;-87
2022/12/31 10:09:54;;;;;;;2.67;1.80;;;8.60;99.90;;;;;;4959667;28;20214;-87
2022/12/31 10:12:35;;;;;;;3.27;1.93;;;8.60;99.90;;;;;;4948031;28;20226;-90
2022/12/31 10:15:40;;;;;;;1.83;1.23;;;8.70;99.90;;;;;;4981770;28;20193;-88
2022/12/31 10:18:12;;;;;;;3.93;2.23;;;8.60;99.90;;;;;;5010752;28;20178;-88
2022/12/31 10:21:15;;;;;;;3.40;2.10;;;8.60;99.90;;;;;;4990469;28;20214;-89
2022/12/31 10:23:46;;;;;;;2.23;2.03;;;8.70;99.90;;;;;;4966439;28;20208;-87
2022/12/31 10:26:43;;;;;;;1.67;1.53;;;8.70;99.90;;;;;;4975156;28;20219;-86
2022/12/31 10:29:37;;;;;;;1.77;1.67;;;8.70;99.90;;;;;;4986973;28;20180;-86
2022/12/31 10:32:15;;;;;;;1.67;1.50;;;8.70;99.90;;;;;;4990217;28;20230;-89
2022/12/31 10:35:16;;;;;;;5.73;2.53;;;10.30;99.90;;;;;;4981901;28;20190;-89
2022/12/31 10:37:58;;;;;;;5.77;2.37;;;8.70;99.90;;;;;;4967312;28;20192;-88
2022/12/31 10:40:33;;;;;;;3.37;1.97;;;8.60;99.90;;;;;;4972305;28;20290;-89
2022/12/31 10:43:52;;;;;;;3.57;2.30;;;8.60;99.90;;;;;;4967981;28;20599;-89
2022/12/31 10:46:40;;;;;;;5.50;1.97;;;8.70;99.90;;;;;;4915280;29;20284;-88
2022/12/31 10:49:27;;;;;;;2.97;1.33;;;8.70;99.90;;;;;;4968211;28;20201;-88
2022/12/31 10:52:25;;;;;;;2.03;1.73;;;8.70;99.90;;;;;;4973371;28;20218;-88
2022/12/31 10:55:26;;;;;;;2.53;1.30;;;8.70;99.90;;;;;;4950761;28;20250;-89
2022/12/31 10:58:15;;;;;;;2.23;1.97;;;8.70;99.90;;;;;;4974046;28;20196;-89
2022/12/31 11:01:12;;;;;;;6.03;1.77;;;8.70;99.90;;;;;;4970421;28;20207;-91
2022/12/31 11:03:49;;;;;;;4.13;2.57;;;8.70;99.90;;;;;;4970277;28;20303;-90
2022/12/31 11:06:41;;;;;;;5.17;2.77;;;8.70;99.90;;;;;;4987332;28;20203;-86
2022/12/31 11:09:45;;;;;;;1.90;1.80;;;8.80;99.90;;;;;;4981105;28;20650;-85
2022/12/31 11:12:36;;;;;;;1.87;1.57;;;8.80;99.90;;;;;;4982894;28;20193;-86
2022/12/31 11:15:33;;;;;;;3.27;2.00;;;8.80;99.90;;;;;;4987419;28;20234;-88
2022/12/31 11:18:07;;;;;;;2.80;1.70;;;8.80;99.90;;;;;;4963765;28;20197;-86
2022/12/31 11:20:57;;;;;;;6.37;2.20;;;8.90;99.90;;;;;;4986345;28;20224;-86
2022/12/31 11:24:10;;;;;;;2.80;1.90;;;9.00;99.90;;;;;;4982138;28;20182;-88
2022/12/31 11:26:58;;;;;;;1.37;1.27;;;9.10;99.90;;;;;;4968695;28;20193;-87
2022/12/31 11:29:42;;;;;;;2.07;1.80;;;9.10;99.90;;;;;;4986178;28;20657;-88
2022/12/31 11:32:44;;;;;;;2.13;1.93;;;9.20;99.90;;;;;;5000535;28;20190;-87
2022/12/31 11:35:47;;;;;;;2.17;1.97;;;9.20;99.90;;;;;;4999216;28;20185;-86
2022/12/31 11:38:32;;;;;;;1.60;1.50;;;9.30;99.90;;;;;;4986727;28;20213;-86
2022/12/31 11:41:29;;;;;;;2.73;1.70;;;9.30;99.90;;;;;;4980503;28;20209;-86
2022/12/31 11:44:21;;;;;;;3.33;1.90;;;9.40;99.90;;;;;;4997701;28;20262;-85
2022/12/31 11:47:11;;;;;;;1.50;1.40;;;9.50;99.90;;;;;;4976705;28;20215;-85
2022/12/31 11:50:05;;;;;;;1.47;1.37;;;9.50;99.90;;;;;;4996866;28;20189;-85
2022/12/31 11:53:08;;;;;;;4.77;2.30;;;9.60;99.90;;;;;;4995016;28;20184;-85
2022/12/31 11:56:02;;;;;;;4.27;2.27;;;9.70;99.90;;;;;;4997388;28;20185;-84
2022/12/31 11:58:29;;;;;;;1.77;1.57;;;9.80;99.90;;;;;;4982664;28;20200;-86
2022/12/31 12:01:14;;;;;;;2.17;1.60;;;9.80;99.90;;;;;;4990499;28;20216;-85
2022/12/31 12:03:43;;;;;;;0.93;0.93;;;9.90;99.90;;;;;;4989165;28;20251;-85
2022/12/31 12:06:14;;;;;;;5.20;1.70;;;9.90;99.90;;;;;;4982750;28;20217;-84
2022/12/31 12:08:41;;;;;;;3.63;2.13;;;9.90;99.90;;;;;;4987430;28;20182;-86
2022/12/31 12:11:17;;;;;;;3.63;2.10;;;10.00;99.90;;;;;;4978888;28;20189;-85
2022/12/31 12:13:43;;;;;;;2.20;1.83;;;9.90;99.90;;;;;;4996202;28;20181;-84
2022/12/31 12:16:09;;;;;;;2.10;1.90;;;9.90;99.90;;;;;;5001973;28;20601;-85
2022/12/31 12:18:46;;;;;;;9.53;2.33;;;10.00;99.90;;;;;;4986001;28;20200;-85
2022/12/31 12:21:19;;;;;;;2.37;1.93;;;10.10;99.90;;;;;;4982179;28;20209;-84
2022/12/31 12:24:04;;;;;;;4.93;2.80;;;10.10;99.90;;;;;;4999888;28;20408;-85
2022/12/31 12:26:33;;;;;;;4.77;2.07;;;10.10;99.90;;;;;;4977932;28;20205;-84
2022/12/31 12:29:28;;;;;;;2.67;2.25;;;10.10;99.90;;;;;;4987875;28;20190;-83
2022/12/31 12:32:05;;;;;;;4.00;2.20;;;10.10;99.90;;;;;;4980031;28;20185;-84
2022/12/31 12:34:37;;;;;;;5.33;2.30;;;10.10;99.90;;;;;;4975391;28;20205;-85
2022/12/31 12:37:04;;;;;;;5.17;2.67;;;10.00;99.90;;;;;;4989134;28;20180;-84
2022/12/31 12:39:32;;;;;;;2.93;1.73;;;10.10;99.90;;;;;;4998867;28;20185;-85
2022/12/31 12:42:06;;;;;;;1.95;1.40;;;10.00;99.90;;;;;;4987369;28;20189;-85
2022/12/31 12:44:32;;;;;;;2.17;1.60;;;10.00;99.90;;;;;;4999558;28;20189;-85
2022/12/31 12:47:00;;;;;;;2.77;1.77;;;10.00;99.90;;;;;;4995740;28;20186;-85
2022/12/31 12:49:37;;;;;;;1.77;1.33;;;10.10;99.90;;;;;;4987331;28;20272;-85
2022/12/31 12:52:06;;;;;;;2.53;1.73;;;10.10;99.90;;;;;;4998256;28;20181;-85
2022/12/31 12:54:50;;;;;;;7.30;1.23;;;10.10;99.90;;;;;;4995575;28;20182;-85
2022/12/31 12:57:22;;;;;;;2.00;1.67;;;10.20;99.90;;;;;;4978491;28;20182;-85
2022/12/31 12:59:50;;;;;;;3.97;1.50;;;10.30;99.90;;;;;;4980259;28;20203;-85
2022/12/31 13:02:36;;;;;;;1.83;1.30;;;10.30;99.90;;;;;;4985230;28;20194;-85
2022/12/31 13:05:11;;;;;;;3.23;2.37;;;10.50;99.90;;;;;;4989765;28;20244;-83
2022/12/31 13:08:16;;;;;;;1.13;1.07;;;10.50;99.90;;;;;;5000844;28;20198;-83
2022/12/31 13:11:10;;;;;;;2.35;1.50;;;10.50;99.90;;;;;;4952985;28;20185;-83
2022/12/31 13:13:45;;;;;;;2.10;1.90;;;10.50;99.90;;;;;;5001140;28;20554;-84
2022/12/31 13:16:11;;;;;;;5.27;2.20;;;10.50;99.90;;;;;;5001687;28;20173;-83
2022/12/31 13:18:47;;;;;;;2.30;2.03;;;10.50;99.90;;;;;;4983502;28;20200;-83
2022/12/31 13:21:35;;;;;;;1.73;1.20;;;10.40;99.90;;;;;;4998034;28;20198;-84
2022/12/31 13:24:20;;;;;;;2.87;1.23;;;10.40;99.90;;;;;;4998707;28;20196;-84
2022/12/31 13:26:52;;;;;;;2.08;1.42;;;10.30;99.90;;;;;;4988975;28;20674;-84
2022/12/31 13:29:22;;;;;;;2.93;2.03;;;10.30;99.90;;;;;;4990713;28;20213;-84
2022/12/31 13:31:50;;;;;;;1.10;1.00;;;10.30;99.90;;;;;;5003228;28;20189;-84
2022/12/31 13:34:24;;;;;;;4.67;1.83;;;10.30;99.90;;;;;;4997613;28;20190;-84
2022/12/31 13:36:53;;;;;;;2.37;1.67;;;10.30;99.90;;;;;;4985904;28;20176;-84
2022/12/31 13:39:24;;;;;;;2.20;1.73;;;10.30;99.90;;;;;;4998750;28;20174;-84
2022/12/31 13:41:59;;;;;;;2.60;1.90;;;10.30;99.90;;;;;;5004842;28;20261;-85
2022/12/31 13:44:30;;;;;;;5.10;2.73;;;10.30;99.90;;;;;;5003609;28;20180;-82
2022/12/31 13:47:19;;;;;;;2.20;2.00;;;10.30;99.90;;;;;;4989280;28;20601;-85
2022/12/31 13:50:01;;;;;;;4.87;2.33;;;10.30;99.90;;;;;;5003478;28;20812;-84
2022/12/31 13:52:33;;;;;;;1.37;1.23;;;10.30;99.90;;;;;;4989343;28;20260;-84
2022/12/31 13:55:12;;;;;;;3.73;1.73;;;10.20;99.90;;;;;;5003240;28;20185;-84
2022/12/31 13:57:46;;;;;;;1.90;1.63;;;10.10;99.90;;;;;;5002681;28;20188;-84